createdAt,value
2023-03-06T01:12:30.889Z,23.12
2023-03-06T01:13:30.875Z,23.17
2023-03-06T01:14:30.872Z,23.18
2023-03-06T01:15:30.863Z,23.18
2023-03-06T01:16:30.905Z,23.17
2023-03-06T01:17:30.862Z,23.15
2023-03-06T01:18:30.865Z,23.17
2023-03-06T01:19:30.857Z,23.14
2023-03-06T01:20:30.864Z,23.15
2023-03-06T01:21:30.860Z,23.15
2023-03-06T01:22:30.861Z,23.19
2023-03-06T01:23:30.858Z,23.19
2023-03-06T01:24:30.866Z,23.17
2023-03-06T01:25:30.860Z,23.18
2023-03-06T01:26:30.866Z,23.17
2023-03-06T01:27:30.865Z,23.17
2023-03-06T01:28:30.839Z,23.21
2023-03-06T01:29:30.836Z,23.19
2023-03-06T01:30:30.825Z,23.18
2023-03-06T01:31:31.197Z,23.15
2023-03-06T01:32:30.913Z,23.15
2023-03-06T01:33:30.818Z,23.15
2023-03-06T01:34:30.820Z,23.19
2023-03-06T01:35:30.848Z,23.15
2023-03-06T01:36:30.814Z,23.14
2023-03-06T01:37:30.813Z,23.15
2023-03-06T01:38:30.824Z,23.17
2023-03-06T01:39:30.820Z,23.15
2023-03-06T01:40:30.812Z,23.19
2023-03-06T01:41:30.839Z,23.17
2023-03-06T01:42:32.147Z,23.18
2023-03-06T01:43:30.830Z,23.14
2023-03-06T01:44:30.801Z,23.15
2023-03-06T01:45:30.937Z,23.14
2023-03-06T01:46:30.796Z,23.15
2023-03-06T01:47:30.823Z,23.18
2023-03-06T01:48:30.909Z,23.15
2023-03-06T01:49:30.803Z,23.14
2023-03-06T01:50:30.800Z,23.15
2023-03-06T01:51:30.807Z,23.14
2023-03-06T01:52:30.802Z,23.15
2023-03-06T01:53:30.803Z,23.18
2023-03-06T01:54:30.865Z,23.14
2023-03-06T01:55:30.804Z,23.14
2023-03-06T01:56:30.803Z,23.11
2023-03-06T01:57:30.787Z,23.15
2023-03-06T01:58:30.780Z,23.18
2023-03-06T01:59:30.782Z,23.21
2023-03-06T02:00:30.788Z,23.18
2023-03-06T02:01:30.839Z,23.19
2023-03-06T02:02:30.792Z,23.18
2023-03-06T02:03:30.755Z,23.19
2023-03-06T02:04:30.753Z,23.19
2023-03-06T02:05:30.756Z,23.21
2023-03-06T02:06:30.767Z,23.22
2023-03-06T02:07:30.756Z,23.17
2023-03-06T04:34:30.799Z,23.05
2023-03-06T04:44:30.782Z,23.08
2023-03-06T05:20:30.836Z,23.02
2023-03-06T06:48:31.097Z,23.58
2023-03-06T06:51:31.079Z,23.67
2023-03-06T06:53:31.082Z,23.69
2023-03-06T06:57:31.810Z,23.74
2023-03-06T06:58:30.977Z,23.77
2023-03-06T06:59:30.970Z,23.81
2023-03-06T07:00:30.954Z,23.77
2023-03-06T07:01:31.009Z,23.80
2023-03-06T07:02:30.954Z,23.84
2023-03-06T07:03:30.987Z,23.84
2023-03-06T07:04:30.928Z,23.86
2023-03-06T07:05:31.003Z,23.91
2023-03-06T07:06:30.888Z,23.91
2023-03-06T07:07:30.915Z,23.91
2023-03-06T07:08:30.852Z,23.93
2023-03-06T07:09:30.885Z,23.94
2023-03-06T07:10:30.919Z,23.93
2023-03-06T07:11:30.858Z,23.94
2023-03-06T07:12:30.810Z,23.96
2023-03-06T07:13:30.807Z,23.96
2023-03-06T07:14:30.795Z,23.96
2023-03-06T07:15:30.834Z,23.94
2023-03-06T07:16:30.765Z,23.91
2023-03-06T07:17:30.739Z,23.99
2023-03-06T07:18:30.710Z,24.07
2023-03-06T07:19:30.713Z,24.10
2023-03-06T07:20:30.774Z,24.11
2023-03-06T07:21:30.727Z,24.14
2023-03-06T07:22:38.736Z,24.15
2023-03-06T07:23:31.655Z,24.15
2023-03-06T07:24:30.620Z,24.15
2023-03-06T07:25:30.593Z,24.18
2023-03-06T07:26:34.185Z,24.17
2023-03-06T07:27:30.604Z,24.20
2023-03-06T07:28:37.602Z,24.20
2023-03-06T07:29:31.516Z,24.24
2023-03-06T07:30:30.479Z,24.23
2023-03-06T07:31:30.465Z,24.25
2023-03-06T07:32:30.616Z,24.25
2023-03-06T07:33:30.421Z,24.27
2023-03-06T07:34:30.388Z,24.27
2023-03-06T07:35:30.423Z,24.31
2023-03-06T07:36:30.361Z,24.34
2023-03-06T07:37:30.390Z,24.34
2023-03-06T07:38:30.274Z,24.34
2023-03-06T07:39:30.261Z,24.35
2023-03-06T07:40:30.755Z,24.38
2023-03-06T07:41:30.766Z,24.41
2023-03-06T07:42:30.329Z,24.44
2023-03-06T07:43:30.161Z,24.47
2023-03-06T07:44:30.290Z,24.52
2023-03-06T07:45:30.095Z,24.58
2023-03-06T07:46:30.266Z,24.59
2023-03-06T07:47:30.081Z,24.64
2023-03-06T07:48:30.042Z,24.64
2023-03-06T07:49:30.025Z,24.59
2023-03-06T07:50:29.981Z,24.64
2023-03-06T07:51:29.961Z,24.68
2023-03-06T07:52:29.927Z,24.68
2023-03-06T07:53:29.917Z,24.62
2023-03-06T07:54:29.962Z,24.56
2023-03-06T07:55:29.871Z,24.55
2023-03-06T07:56:29.812Z,24.62
2023-03-06T07:57:29.776Z,24.59
2023-03-06T07:58:29.947Z,24.55
2023-03-06T07:59:29.744Z,24.47
2023-03-06T08:00:30.283Z,24.42
2023-03-06T08:01:29.657Z,24.50
2023-03-06T08:02:29.696Z,24.52
2023-03-06T08:03:29.628Z,24.51
2023-03-06T08:04:30.269Z,24.45
2023-03-06T08:05:29.600Z,24.41
2023-03-06T08:06:29.554Z,24.41
2023-03-06T08:07:29.541Z,24.45
2023-03-06T08:08:29.455Z,24.50
2023-03-06T08:09:29.431Z,24.52
2023-03-06T08:10:29.401Z,24.50
2023-03-06T08:11:29.344Z,24.45
2023-03-06T08:12:29.372Z,24.47
2023-03-06T08:13:29.312Z,24.54
2023-03-06T08:14:29.432Z,24.56
2023-03-06T08:15:29.243Z,24.51
2023-03-06T08:16:29.241Z,24.47
2023-03-06T08:17:29.159Z,24.45
2023-03-06T08:18:29.173Z,24.47
2023-03-06T08:19:29.101Z,24.52
2023-03-06T08:20:29.069Z,24.52
2023-03-06T08:21:29.061Z,24.54
2023-03-06T08:22:29.025Z,24.48
2023-03-06T08:23:29.040Z,24.45
2023-03-06T08:24:28.973Z,24.50
2023-03-06T08:25:28.952Z,24.54
2023-03-06T08:26:28.903Z,24.62
2023-03-06T08:27:28.896Z,24.64
2023-03-06T08:28:28.845Z,24.58
2023-03-06T08:29:29.292Z,24.52
2023-03-06T08:30:28.782Z,24.58
2023-03-06T08:31:28.864Z,24.61
2023-03-06T08:32:28.728Z,24.68
2023-03-06T08:33:28.698Z,24.66
2023-03-06T08:34:28.679Z,24.58
2023-03-06T08:35:28.646Z,24.61
2023-03-06T08:36:28.578Z,24.58
2023-03-06T08:37:28.613Z,24.64
2023-03-06T08:38:28.546Z,24.65
2023-03-06T08:39:28.623Z,24.66
2023-03-06T08:40:28.483Z,24.65
2023-03-06T08:41:28.466Z,24.68
2023-03-06T08:42:28.485Z,24.76
2023-03-06T08:43:28.381Z,24.79
2023-03-06T08:44:28.330Z,24.83
2023-03-06T08:45:28.297Z,24.85
2023-03-06T08:46:28.798Z,24.76
2023-03-06T08:47:28.216Z,24.79
2023-03-06T08:48:28.205Z,24.86
2023-03-06T08:49:28.209Z,24.87
2023-03-06T08:50:28.119Z,24.92
2023-03-06T08:51:28.157Z,24.87
2023-03-06T08:52:28.092Z,24.81
2023-03-06T08:53:42.122Z,24.81
2023-03-06T08:54:29.054Z,24.89
2023-03-06T08:55:28.008Z,24.92
2023-03-06T08:56:27.955Z,24.93
2023-03-06T08:57:27.924Z,24.94
2023-03-06T08:58:27.864Z,24.86
2023-03-06T08:59:27.874Z,24.87
2023-03-06T09:00:27.882Z,24.93
2023-03-06T09:01:27.842Z,24.96
2023-03-06T09:02:27.883Z,24.99
2023-03-06T09:03:27.745Z,24.94
2023-03-06T09:04:27.716Z,24.90
2023-03-06T09:05:27.640Z,24.93
2023-03-06T09:06:27.604Z,24.99
2023-03-06T09:07:27.557Z,25.03
2023-03-06T09:08:27.531Z,25.06
2023-03-06T09:09:27.622Z,25.05
2023-03-06T09:10:27.501Z,25.02
2023-03-06T09:11:27.452Z,25.05
2023-03-06T09:12:29.278Z,25.09
2023-03-06T09:13:27.377Z,25.13
2023-03-06T09:14:27.473Z,25.07
2023-03-06T09:15:27.278Z,25.06
2023-03-06T09:16:27.296Z,25.00
2023-03-06T09:17:27.329Z,25.02
2023-03-06T09:18:27.202Z,25.09
2023-03-06T09:19:27.151Z,25.10
2023-03-06T09:20:27.142Z,25.07
2023-03-06T09:21:27.162Z,25.03
2023-03-06T09:22:27.073Z,24.99
2023-03-06T09:23:27.049Z,24.99
2023-03-06T09:24:27.372Z,25.02
2023-03-06T09:25:26.922Z,25.05
2023-03-06T09:26:39.581Z,25.03
2023-03-06T09:27:27.936Z,24.99
2023-03-06T09:28:27.911Z,24.94
2023-03-06T09:29:27.294Z,24.94
2023-03-06T09:30:26.756Z,25.00
2023-03-06T09:31:26.729Z,25.05
2023-03-06T09:32:26.712Z,25.05
2023-03-06T09:33:26.660Z,25.06
2023-03-06T09:34:26.621Z,25.03
2023-03-06T09:35:26.612Z,25.09
2023-03-06T09:36:26.562Z,25.13
2023-03-06T09:37:26.619Z,25.16
2023-03-06T09:38:26.510Z,25.17
2023-03-06T09:39:26.487Z,25.13
2023-03-06T09:40:26.403Z,25.07
2023-03-06T09:41:26.407Z,25.12
2023-03-06T10:06:25.606Z,25.05
2023-03-06T10:07:25.572Z,25.05
2023-03-06T10:08:25.626Z,25.03
2023-03-06T10:09:25.606Z,24.99
2023-03-06T10:10:25.525Z,24.99
2023-03-06T10:11:25.485Z,25.06
2023-03-06T10:12:25.451Z,25.05
2023-03-06T10:13:25.424Z,25.06
2023-03-06T10:14:25.447Z,25.06
2023-03-06T10:15:25.444Z,25.02
2023-03-06T10:16:25.363Z,25.07
2023-03-06T10:17:25.353Z,25.10
2023-03-06T10:18:25.301Z,25.09
2023-03-06T10:19:25.254Z,25.09
2023-03-06T10:20:25.226Z,25.03
2023-03-06T10:21:25.264Z,25.02
2023-03-06T10:22:25.237Z,25.06
2023-03-06T10:23:25.170Z,25.07
2023-03-06T10:24:25.133Z,25.07
2023-03-06T10:25:25.138Z,25.07
2023-03-06T10:26:25.131Z,25.09
2023-03-06T10:27:25.068Z,25.06
2023-03-06T10:28:25.036Z,25.10
2023-03-06T10:29:25.016Z,25.12
2023-03-06T10:30:24.968Z,25.10
2023-03-06T10:31:25.014Z,25.16
2023-03-06T10:32:24.940Z,25.13
2023-03-06T10:33:24.877Z,25.16
2023-03-06T10:34:24.860Z,25.16
2023-03-06T10:35:24.893Z,25.10
2023-03-06T10:36:24.840Z,25.12
2023-03-06T10:37:24.784Z,25.13
2023-03-06T10:38:24.751Z,25.16
2023-03-06T10:39:24.712Z,25.17
2023-03-06T10:40:24.719Z,25.24
2023-03-06T10:41:24.770Z,25.20
2023-03-06T10:42:24.634Z,25.13
2023-03-06T10:43:24.660Z,25.17
2023-03-06T10:44:24.590Z,25.20
2023-03-06T10:45:24.533Z,25.29
2023-03-06T10:46:24.564Z,25.27
2023-03-06T10:47:24.484Z,25.33
2023-03-06T10:48:24.521Z,25.36
2023-03-06T10:49:24.395Z,25.42
2023-03-06T10:50:24.532Z,25.54
2023-03-06T10:51:24.350Z,25.60
2023-03-06T10:52:24.295Z,25.60
2023-03-06T10:53:24.266Z,25.62
2023-03-06T10:54:24.247Z,25.64
2023-03-06T10:55:24.157Z,25.71
2023-03-06T10:56:24.134Z,25.78
2023-03-06T10:57:24.097Z,25.75
2023-03-06T10:58:24.020Z,25.75
2023-03-06T10:59:23.986Z,25.78
2023-03-06T11:00:23.930Z,25.85
2023-03-06T11:01:23.927Z,25.92
2023-03-06T11:02:23.878Z,25.95
2023-03-06T11:03:23.799Z,25.91
2023-03-06T11:04:23.830Z,25.95
2023-03-06T11:05:23.737Z,25.96
2023-03-06T11:06:23.708Z,25.98
2023-03-06T11:07:23.600Z,26.00
2023-03-06T11:08:23.564Z,26.08
2023-03-06T11:09:23.503Z,26.10
2023-03-06T11:10:23.644Z,26.13
2023-03-06T11:11:36.690Z,26.15
2023-03-06T11:12:24.362Z,26.16
2023-03-06T11:13:23.882Z,26.22
2023-03-06T11:14:23.293Z,26.20
2023-03-06T11:15:23.208Z,26.25
2023-03-06T11:16:25.803Z,26.29
2023-03-06T11:17:23.191Z,26.33
2023-03-06T11:18:23.116Z,26.36
2023-03-06T11:19:23.009Z,26.40
2023-03-06T11:20:22.992Z,26.42
2023-03-06T11:21:22.919Z,26.47
2023-03-06T11:22:22.871Z,26.48
2023-03-06T11:23:22.816Z,26.54
2023-03-06T11:24:22.735Z,26.54
2023-03-06T11:25:22.670Z,26.57
2023-03-06T11:26:22.648Z,26.58
2023-03-06T11:27:22.550Z,26.63
2023-03-06T11:28:22.510Z,26.63
2023-03-06T11:29:22.480Z,26.66
2023-03-06T11:30:22.381Z,26.70
2023-03-06T11:31:22.407Z,26.73
2023-03-06T11:32:22.290Z,26.74
2023-03-06T11:33:22.319Z,26.74
2023-03-06T11:34:22.186Z,26.75
2023-03-06T11:35:22.098Z,26.78
2023-03-06T11:36:22.066Z,26.80
2023-03-06T11:37:22.003Z,26.83
2023-03-06T11:38:21.945Z,26.83
2023-03-06T11:39:21.865Z,26.84
2023-03-06T11:40:21.825Z,26.85
2023-03-06T11:41:21.881Z,26.87
2023-03-06T11:42:21.676Z,26.93
2023-03-06T11:43:21.609Z,26.94
2023-03-06T11:44:21.575Z,26.91
2023-03-06T11:45:21.522Z,26.93
2023-03-06T11:46:21.531Z,26.91
2023-03-06T11:47:21.441Z,26.95
2023-03-06T11:48:21.343Z,26.95
2023-03-06T11:49:21.283Z,26.94
2023-03-06T11:50:21.214Z,26.93
2023-03-06T11:51:21.172Z,26.90
2023-03-06T11:52:21.117Z,26.87
2023-03-06T11:53:21.084Z,26.87
2023-03-06T11:54:21.015Z,26.87
2023-03-06T11:55:20.972Z,26.90
2023-03-06T11:56:20.914Z,26.88
2023-03-06T11:57:20.869Z,26.85
2023-03-06T11:58:20.780Z,26.84
2023-03-06T11:59:20.749Z,26.81
2023-03-06T12:00:20.672Z,26.83
2023-03-06T12:01:21.361Z,26.81
2023-03-06T12:02:20.578Z,26.80
2023-03-06T12:03:20.619Z,26.80
2023-03-06T12:04:20.450Z,26.80
2023-03-06T12:05:20.518Z,26.78
2023-03-06T12:06:20.624Z,26.75
2023-03-06T12:07:20.403Z,26.75
2023-03-06T12:08:20.248Z,26.73
2023-03-06T12:09:20.272Z,26.71
2023-03-06T12:10:20.183Z,26.73
2023-03-06T12:11:20.677Z,26.68
2023-03-06T12:12:20.052Z,26.67
2023-03-06T12:13:20.010Z,26.66
2023-03-06T12:14:19.924Z,26.66
2023-03-06T16:01:11.039Z,24.97
2023-03-06T16:15:10.621Z,24.85
2023-03-06T16:16:10.591Z,24.83
2023-03-06T16:17:10.561Z,24.83
2023-03-06T16:18:10.526Z,24.83
2023-03-06T16:19:14.000Z,24.83
2023-03-06T16:21:10.462Z,24.79
2023-03-06T16:22:10.439Z,24.75
2023-03-06T16:23:10.445Z,24.81
2023-03-06T16:24:10.365Z,24.81
2023-03-06T16:32:10.208Z,24.69
2023-03-06T16:33:10.142Z,24.71
2023-03-06T16:34:11.119Z,24.71
2023-03-06T16:35:10.112Z,24.73
2023-03-06T16:36:10.112Z,24.73
2023-03-06T16:37:10.071Z,24.71
2023-03-06T16:38:10.051Z,24.66
2023-03-06T16:39:10.020Z,24.71
2023-03-06T16:40:10.008Z,24.71
2023-03-06T16:41:11.123Z,24.68
2023-03-06T16:42:09.986Z,24.68
2023-03-06T16:43:09.961Z,24.66
2023-03-06T16:44:09.973Z,24.66
2023-03-06T16:45:09.924Z,24.68
2023-03-06T22:49:01.241Z,24.04
2023-03-06T22:57:01.063Z,24.07
2023-03-06T22:58:01.093Z,24.06
2023-03-06T22:59:01.044Z,24.07
2023-03-06T23:00:01.023Z,24.13
2023-03-06T23:01:01.032Z,24.10
2023-03-06T23:02:00.974Z,24.11
2023-03-06T23:03:00.963Z,24.10
2023-03-06T23:04:00.973Z,24.11
2023-03-06T23:05:00.946Z,24.08
2023-03-06T23:06:00.896Z,24.08
2023-03-06T23:07:00.879Z,24.11
2023-03-06T23:08:00.865Z,24.08
2023-03-06T23:09:00.868Z,24.08
2023-03-06T23:10:00.803Z,24.07
2023-03-06T23:11:00.796Z,24.08
2023-03-06T23:12:00.755Z,24.07
2023-03-06T23:13:00.749Z,24.08
2023-03-06T23:14:00.738Z,24.08
2023-03-06T23:15:00.771Z,24.08
2023-03-06T23:16:00.705Z,24.08
2023-03-06T23:17:00.641Z,24.07
2023-03-06T23:18:00.626Z,24.08
2023-03-06T23:19:00.604Z,24.08
2023-03-06T23:20:00.582Z,24.07
2023-03-06T23:21:00.557Z,24.08
2023-03-06T23:22:00.560Z,24.08
2023-03-06T23:23:00.529Z,24.07
2023-03-06T23:24:00.502Z,24.07
2023-03-06T23:25:00.500Z,24.06
2023-03-06T23:26:00.457Z,24.06
2023-03-06T23:27:00.438Z,24.07
2023-03-06T23:28:00.432Z,24.07
2023-03-06T23:29:00.403Z,24.04
2023-03-06T23:30:00.386Z,24.06
2023-03-06T23:31:00.407Z,24.07
2023-03-06T23:32:00.366Z,24.04
2023-03-06T23:33:00.335Z,24.07
2023-03-06T23:34:00.298Z,24.07
2023-03-06T23:35:00.284Z,24.04
2023-03-06T23:36:00.389Z,24.06
2023-03-06T23:37:00.241Z,24.06
2023-03-06T23:38:00.224Z,24.06
2023-03-06T23:39:00.204Z,24.07
2023-03-06T23:40:00.210Z,24.06
2023-03-06T23:41:00.170Z,24.07
2023-03-06T23:42:00.147Z,24.07
2023-03-06T23:43:00.134Z,24.08
2023-03-06T23:44:00.118Z,24.08
2023-03-06T23:45:00.110Z,24.10
2023-03-06T23:46:00.101Z,24.08
2023-03-06T23:47:00.063Z,24.10
2023-03-06T23:48:00.083Z,24.06
2023-03-06T23:49:00.024Z,24.11
2023-03-06T23:49:59.983Z,24.08
2023-03-06T23:50:59.956Z,24.10
2023-03-06T23:51:59.947Z,24.10
2023-03-06T23:52:59.939Z,24.08
2023-03-06T23:53:59.932Z,24.08
